Time;durP1;ratioP1;P1;durP2;ratioP2;P2;SDS_P1;SDS_P2;PMS_P1;PMS_P2;Temp;Humidity;BMP_temperature;BMP_pressure;BME280_temperature;BME280_humidity;BME280_pressure;Samples;Min_cycle;Max_cycle;Signal;HPM_P1;HPM_P2
2023/03/30 00:01:19;;;;;;;2.28;1.00;;;21.50;48.90;;;;;;5037965;28;20456;-62
2023/03/30 00:03:46;;;;;;;1.70;0.90;;;21.50;48.90;;;;;;5041351;28;20044;-62
2023/03/30 00:06:19;;;;;;;1.83;0.90;;;21.50;48.90;;;;;;5040757;28;20029;-63
2023/03/30 00:08:45;;;;;;;1.70;0.98;;;21.50;49.00;;;;;;5040606;28;20041;-61
2023/03/30 00:11:14;;;;;;;1.27;0.77;;;21.50;49.50;;;;;;5039418;28;20257;-62
2023/03/30 00:13:40;;;;;;;1.60;0.77;;;21.50;48.90;;;;;;5040851;28;20029;-62
2023/03/30 00:16:08;;;;;;;1.52;0.90;;;21.50;48.90;;;;;;5041398;28;20030;-62
2023/03/30 00:18:35;;;;;;;1.42;0.90;;;21.50;48.90;;;;;;5040233;28;20029;-62
2023/03/30 00:21:02;;;;;;;1.23;0.77;;;21.50;49.40;;;;;;5036731;28;20104;-63
2023/03/30 00:23:28;;;;;;;1.98;1.10;;;21.50;48.90;;;;;;5040103;28;20024;-62
2023/03/30 00:25:54;;;;;;;1.75;0.95;;;21.50;48.90;;;;;;5040113;28;20040;-63
2023/03/30 00:28:21;;;;;;;1.63;0.90;;;21.50;48.90;;;;;;5040299;28;20537;-62
2023/03/30 00:30:47;;;;;;;1.50;0.85;;;21.50;48.90;;;;;;5042593;28;20548;-62
2023/03/30 00:33:13;;;;;;;1.30;0.80;;;21.50;48.90;;;;;;5040138;28;20025;-62
2023/03/30 00:35:39;;;;;;;1.30;0.90;;;21.50;48.90;;;;;;5037778;28;20040;-62
2023/03/30 00:38:04;;;;;;;1.48;0.70;;;21.50;48.90;;;;;;5039502;28;20017;-62
2023/03/30 00:40:32;;;;;;;1.38;0.80;;;21.50;48.90;;;;;;5039406;28;20045;-62
2023/03/30 00:43:04;;;;;;;1.45;0.90;;;21.50;48.90;;;;;;5040597;28;20118;-61
2023/03/30 00:45:31;;;;;;;1.48;0.90;;;21.50;48.90;;;;;;5037698;28;20137;-63
2023/03/30 00:48:02;;;;;;;2.15;1.10;;;21.50;48.90;;;;;;5041464;28;20036;-61
2023/03/30 00:50:36;;;;;;;1.75;0.98;;;21.50;48.90;;;;;;5039138;28;20108;-61
2023/03/30 00:53:10;;;;;;;1.20;0.80;;;21.50;48.90;;;;;;5040512;28;20025;-62
2023/03/30 00:55:38;;;;;;;1.52;0.98;;;21.50;48.90;;;;;;5039419;28;20140;-62
2023/03/30 00:58:05;;;;;;;1.27;0.90;;;21.50;48.90;;;;;;5038118;28;20087;-62
2023/03/30 01:00:33;;;;;;;1.42;0.88;;;21.50;49.40;;;;;;5037790;28;20029;-62
2023/03/30 01:03:03;;;;;;;1.20;0.90;;;21.50;48.80;;;;;;5039193;28;20495;-62
2023/03/30 01:05:29;;;;;;;1.88;0.85;;;21.50;48.90;;;;;;5037309;28;20029;-62
2023/03/30 01:07:56;;;;;;;1.15;0.77;;;21.50;48.80;;;;;;5038015;28;20250;-57
2023/03/30 01:10:23;;;;;;;1.40;0.85;;;21.50;48.80;;;;;;5039789;28;20036;-63
2023/03/30 01:12:49;;;;;;;1.20;0.90;;;21.40;48.80;;;;;;5038745;28;20492;-62
2023/03/30 01:15:15;;;;;;;1.90;1.10;;;21.50;48.90;;;;;;5036290;28;20079;-62
2023/03/30 01:18:05;;;;;;;1.30;0.82;;;21.40;48.80;;;;;;5040902;28;20396;-62
2023/03/30 01:20:43;;;;;;;1.20;0.90;;;21.40;48.80;;;;;;5041347;28;20095;-62
2023/03/30 01:23:26;;;;;;;1.45;0.70;;;21.40;48.80;;;;;;5042849;28;20021;-62
2023/03/30 01:26:15;;;;;;;1.70;0.82;;;21.40;48.80;;;;;;5038913;28;20464;-61
2023/03/30 01:29:08;;;;;;;1.45;0.90;;;21.40;48.80;;;;;;5039184;28;20155;-61
2023/03/30 01:32:07;;;;;;;1.70;0.95;;;21.40;48.80;;;;;;5041380;28;20481;-62
2023/03/30 01:35:10;;;;;;;1.50;0.90;;;21.40;48.80;;;;;;5039105;28;20052;-62
2023/03/30 01:38:10;;;;;;;1.83;0.98;;;21.40;48.80;;;;;;5042833;28;20036;-62
2023/03/30 01:40:58;;;;;;;1.27;0.82;;;21.40;48.80;;;;;;5041744;28;20127;-62
2023/03/30 01:43:37;;;;;;;1.35;0.90;;;21.40;48.80;;;;;;5039068;28;20104;-62
2023/03/30 01:46:18;;;;;;;1.27;0.80;;;21.40;48.80;;;;;;5041438;28;20599;-62
2023/03/30 01:49:02;;;;;;;1.40;0.90;;;21.40;48.80;;;;;;5043192;28;20029;-62
2023/03/30 01:51:38;;;;;;;1.75;0.90;;;21.40;48.80;;;;;;5041881;28;20040;-62
2023/03/30 01:54:11;;;;;;;1.33;0.82;;;21.40;48.80;;;;;;5044259;28;20496;-62
2023/03/30 01:56:46;;;;;;;1.50;0.80;;;21.40;48.80;;;;;;5044225;28;20027;-62
2023/03/30 01:59:19;;;;;;;1.45;0.90;;;21.40;48.80;;;;;;5044123;28;20025;-62
2023/03/30 02:01:49;;;;;;;1.95;1.15;;;21.40;49.30;;;;;;5040170;28;20033;-61
2023/03/30 02:04:17;;;;;;;1.00;0.75;;;21.40;49.30;;;;;;5047101;28;20056;-62
2023/03/30 02:06:48;;;;;;;1.17;0.80;;;21.40;48.80;;;;;;5042037;28;20025;-61
2023/03/30 02:09:17;;;;;;;1.15;0.75;;;21.40;48.80;;;;;;5042220;28;20416;-62
2023/03/30 02:11:45;;;;;;;;;;;21.40;48.80;;;;;;5040187;28;20397;-61
2023/03/30 02:14:14;;;;;;;1.45;0.70;;;21.40;48.80;;;;;;5043812;28;19931;-62
2023/03/30 02:16:45;;;;;;;1.30;0.77;;;21.40;48.80;;;;;;5040828;28;20021;-62
2023/03/30 02:19:11;;;;;;;1.42;0.93;;;21.40;48.80;;;;;;5041774;28;20109;-61
2023/03/30 02:21:37;;;;;;;1.38;0.85;;;21.40;48.80;;;;;;5041947;28;20116;-62
2023/03/30 02:24:04;;;;;;;1.95;0.80;;;21.40;48.80;;;;;;5045066;28;20659;-62
2023/03/30 02:26:31;;;;;;;0.82;0.70;;;21.40;48.80;;;;;;5044925;28;20500;-62
2023/03/30 02:28:57;;;;;;;1.25;0.70;;;21.40;48.80;;;;;;5045568;28;20029;-62
2023/03/30 02:31:23;;;;;;;1.60;0.82;;;21.40;48.80;;;;;;5043780;28;20500;-62
2023/03/30 02:34:13;;;;;;;1.00;0.75;;;21.40;48.80;;;;;;5040435;28;20029;-62
2023/03/30 02:36:38;;;;;;;1.20;0.75;;;21.40;48.80;;;;;;5041494;28;20473;-62
2023/03/30 02:39:21;;;;;;;1.25;0.93;;;21.40;48.80;;;;;;5037360;28;20102;-62
2023/03/30 02:42:32;;;;;;;0.98;0.70;;;21.40;48.80;;;;;;5041829;28;20040;-62
2023/03/30 02:45:18;;;;;;;1.13;0.73;;;21.40;48.80;;;;;;5014015;28;20110;-62
2023/03/30 02:47:59;;;;;;;1.10;0.80;;;21.40;48.80;;;;;;5042657;28;20021;-62
2023/03/30 02:50:39;;;;;;;1.08;0.80;;;21.40;48.90;;;;;;5039517;28;20045;-62
2023/03/30 02:53:13;;;;;;;1.10;0.80;;;21.40;48.80;;;;;;5043635;28;20108;-61
2023/03/30 02:56:36;;;;;;;1.63;0.90;;;21.40;48.80;;;;;;5042995;28;20028;-61
2023/03/30 02:59:11;;;;;;;1.30;0.90;;;21.30;48.80;;;;;;4983089;28;20030;-62
2023/03/30 03:01:43;;;;;;;1.20;0.80;;;21.30;48.80;;;;;;5035109;28;20033;-62
2023/03/30 03:04:11;;;;;;;0.93;0.80;;;21.40;48.80;;;;;;5040383;28;20056;-62
2023/03/30 03:06:38;;;;;;;1.27;0.80;;;21.30;48.80;;;;;;5042743;28;20218;-62
2023/03/30 03:09:03;;;;;;;1.10;0.80;;;21.30;48.80;;;;;;5039176;28;20604;-63
2023/03/30 03:11:29;;;;;;;1.35;0.73;;;21.30;48.80;;;;;;5042959;28;20025;-63
2023/03/30 03:13:55;;;;;;;0.98;0.68;;;21.30;48.80;;;;;;5042175;28;20535;-63
2023/03/30 03:16:21;;;;;;;1.20;0.90;;;21.30;48.80;;;;;;5042134;28;20487;-63
2023/03/30 03:18:48;;;;;;;1.10;0.80;;;21.30;48.80;;;;;;5042946;28;20032;-63
2023/03/30 03:21:14;;;;;;;1.17;0.70;;;21.30;48.70;;;;;;5041769;28;20021;-63
2023/03/30 03:23:41;;;;;;;1.58;0.90;;;21.30;48.70;;;;;;5042300;28;20025;-62
2023/03/30 03:26:08;;;;;;;1.70;0.90;;;21.30;48.70;;;;;;5042036;28;20032;-63
2023/03/30 03:28:34;;;;;;;1.30;0.90;;;21.30;48.70;;;;;;5043976;28;20037;-63
2023/03/30 03:31:01;;;;;;;1.30;0.80;;;21.30;48.70;;;;;;5043521;28;20033;-63
2023/03/30 03:33:27;;;;;;;1.42;0.80;;;21.30;48.70;;;;;;5040952;28;20527;-62
2023/03/30 03:35:54;;;;;;;1.67;0.80;;;21.30;49.30;;;;;;5043869;28;20104;-62
2023/03/30 03:38:23;;;;;;;1.50;0.90;;;21.30;48.70;;;;;;5042601;28;20499;-63
2023/03/30 03:40:53;;;;;;;1.30;0.70;;;21.30;48.70;;;;;;5040970;28;20035;-63
2023/03/30 03:43:20;;;;;;;1.13;0.80;;;21.30;48.70;;;;;;5044582;28;20084;-63
2023/03/30 03:45:46;;;;;;;1.00;0.70;;;21.30;48.70;;;;;;5040267;28;20044;-63
2023/03/30 03:48:13;;;;;;;1.50;0.90;;;21.30;48.70;;;;;;5041180;28;20029;-63
2023/03/30 03:50:39;;;;;;;1.00;0.80;;;21.30;48.70;;;;;;5039939;28;20029;-63
2023/03/30 03:53:04;;;;;;;1.15;0.75;;;21.30;48.70;;;;;;5042175;28;20485;-63
2023/03/30 03:55:33;;;;;;;1.30;0.88;;;21.30;48.70;;;;;;5037934;28;20025;-63
2023/03/30 03:57:59;;;;;;;1.50;0.90;;;21.30;48.70;;;;;;5041166;28;20021;-63
2023/03/30 04:00:25;;;;;;;1.25;0.75;;;21.30;48.70;;;;;;5039586;28;20556;-63
2023/03/30 04:02:51;;;;;;;1.55;0.80;;;21.30;48.70;;;;;;5041091;28;20083;-62
2023/03/30 04:05:16;;;;;;;1.00;0.70;;;21.30;48.70;;;;;;5037435;28;20033;-63
2023/03/30 04:07:45;;;;;;;0.82;0.60;;;21.30;48.70;;;;;;5040385;28;20477;-63
2023/03/30 04:10:11;;;;;;;0.70;0.68;;;21.30;48.70;;;;;;5042015;28;20060;-63
2023/03/30 04:12:37;;;;;;;0.98;0.70;;;21.30;48.70;;;;;;5040154;28;20473;-63
2023/03/30 04:15:05;;;;;;;0.95;0.77;;;21.30;48.70;;;;;;5041824;28;20051;-63
2023/03/30 04:17:32;;;;;;;0.70;0.60;;;21.30;48.70;;;;;;5039924;28;20384;-62
2023/03/30 04:20:03;;;;;;;1.10;0.80;;;21.30;48.70;;;;;;5038968;28;20528;-62
2023/03/30 04:22:34;;;;;;;1.23;0.80;;;21.30;48.70;;;;;;5036637;28;20044;-63
2023/03/30 04:25:00;;;;;;;1.25;0.75;;;21.30;48.80;;;;;;5037877;28;20361;-63
2023/03/30 04:27:27;;;;;;;1.23;0.70;;;21.30;48.70;;;;;;5039957;28;20044;-64
2023/03/30 04:30:00;;;;;;;1.45;0.80;;;21.30;48.70;;;;;;5037066;28;20029;-63
2023/03/30 04:32:33;;;;;;;1.65;0.90;;;21.30;48.80;;;;;;5041469;28;20394;-63
2023/03/30 04:35:02;;;;;;;1.15;0.80;;;21.30;48.80;;;;;;5039128;28;20025;-62
2023/03/30 04:37:30;;;;;;;0.77;0.75;;;21.30;48.70;;;;;;5039702;28;20119;-62
2023/03/30 04:40:00;;;;;;;1.35;0.88;;;21.30;48.80;;;;;;5039225;28;20121;-63
2023/03/30 04:42:32;;;;;;;1.23;0.70;;;21.30;48.80;;;;;;5035682;28;20147;-64
2023/03/30 04:44:59;;;;;;;1.33;0.77;;;21.30;48.80;;;;;;5040280;28;20029;-63
2023/03/30 04:47:26;;;;;;;0.70;0.68;;;21.30;48.80;;;;;;5041770;28;20025;-63
2023/03/30 04:49:51;;;;;;;0.95;0.68;;;21.30;48.80;;;;;;5037694;28;20096;-63
2023/03/30 04:52:17;;;;;;;1.40;0.75;;;21.30;48.80;;;;;;5034632;28;20095;-63
2023/03/30 04:54:43;;;;;;;1.25;0.88;;;21.30;48.80;;;;;;5038224;28;20029;-63
2023/03/30 04:57:09;;;;;;;1.10;0.82;;;21.30;48.90;;;;;;5038937;28;20333;-64
2023/03/30 04:59:35;;;;;;;1.63;0.90;;;21.30;48.90;;;;;;5041889;28;20037;-64
2023/03/30 05:02:02;;;;;;;1.17;0.77;;;21.30;48.90;;;;;;5041329;28;20499;-64
2023/03/30 05:04:28;;;;;;;1.30;0.95;;;21.30;48.90;;;;;;5038358;28;20072;-65
2023/03/30 05:06:56;;;;;;;1.55;0.77;;;21.20;48.80;;;;;;5039866;28;20038;-64
2023/03/30 05:09:22;;;;;;;2.58;0.90;;;21.20;48.80;;;;;;5039682;28;20075;-64
2023/03/30 05:11:48;;;;;;;1.38;0.80;;;21.20;48.80;;;;;;5037615;28;20044;-64
2023/03/30 05:14:14;;;;;;;1.17;0.80;;;21.20;48.90;;;;;;5039187;28;20033;-64
2023/03/30 05:16:40;;;;;;;1.83;0.85;;;21.30;48.90;;;;;;5036877;28;20022;-63
2023/03/30 05:19:05;;;;;;;1.90;1.00;;;21.30;49.00;;;;;;5040489;28;20378;-63
2023/03/30 05:21:31;;;;;;;1.55;0.88;;;21.20;48.90;;;;;;5041322;28;20021;-64
2023/03/30 05:23:57;;;;;;;2.22;0.85;;;21.30;49.00;;;;;;5039492;28;20033;-64
2023/03/30 05:26:22;;;;;;;1.70;0.95;;;21.20;49.00;;;;;;5039243;28;20032;-64
2023/03/30 05:28:49;;;;;;;1.83;0.95;;;21.20;49.00;;;;;;5038967;28;20064;-64
2023/03/30 05:31:16;;;;;;;1.55;1.00;;;21.20;49.00;;;;;;5038887;28;20029;-65
2023/03/30 05:33:41;;;;;;;1.70;0.85;;;21.20;49.00;;;;;;5037837;28;20101;-64
2023/03/30 05:36:07;;;;;;;1.88;0.90;;;21.20;49.00;;;;;;5035616;28;20116;-64
2023/03/30 05:38:34;;;;;;;1.98;1.00;;;21.20;49.00;;;;;;5033983;28;20434;-64
2023/03/30 05:41:01;;;;;;;1.85;0.80;;;21.20;49.00;;;;;;5035963;28;20462;-64
2023/03/30 05:43:27;;;;;;;1.13;0.80;;;21.20;49.00;;;;;;5038789;28;20041;-64
2023/03/30 05:45:52;;;;;;;1.52;0.85;;;21.20;49.00;;;;;;5037604;28;20036;-63
2023/03/30 05:48:18;;;;;;;1.77;1.13;;;21.20;49.00;;;;;;5036332;28;20477;-64
2023/03/30 05:50:46;;;;;;;1.88;0.90;;;21.20;49.00;;;;;;5040448;28;20029;-63
2023/03/30 05:53:11;;;;;;;2.90;1.20;;;21.20;49.10;;;;;;5038067;28;20111;-64
2023/03/30 05:55:37;;;;;;;2.03;1.02;;;21.20;49.10;;;;;;5037110;28;20017;-64
2023/03/30 05:58:02;;;;;;;1.60;1.00;;;21.20;49.10;;;;;;5045258;28;20025;-64
2023/03/30 06:00:32;;;;;;;1.88;1.00;;;21.20;49.10;;;;;;5039094;28;20033;-64
2023/03/30 06:02:58;;;;;;;1.95;1.05;;;21.20;49.10;;;;;;5037943;28;20017;-64
2023/03/30 06:05:24;;;;;;;2.22;0.95;;;21.20;49.10;;;;;;5038588;28;20029;-64
2023/03/30 06:07:50;;;;;;;2.55;0.90;;;21.20;49.10;;;;;;5037163;28;20100;-64
2023/03/30 06:10:16;;;;;;;1.70;0.90;;;21.20;49.10;;;;;;5040298;28;20029;-64
2023/03/30 06:12:41;;;;;;;1.80;1.00;;;21.20;49.10;;;;;;5038616;28;20029;-64
2023/03/30 06:15:08;;;;;;;1.55;0.90;;;21.20;49.10;;;;;;5036250;28;20013;-64
2023/03/30 06:17:35;;;;;;;1.38;0.80;;;21.20;49.10;;;;;;5040305;28;20032;-64
2023/03/30 06:20:07;;;;;;;1.90;0.95;;;21.20;49.10;;;;;;5041575;28;20017;-64
2023/03/30 06:22:33;;;;;;;1.77;0.93;;;21.20;49.10;;;;;;5044541;28;20035;-63
2023/03/30 06:24:59;;;;;;;1.20;0.70;;;21.20;49.20;;;;;;5040839;28;20036;-64
2023/03/30 06:27:25;;;;;;;1.63;0.90;;;21.20;49.10;;;;;;5048311;28;20552;-64
2023/03/30 06:29:51;;;;;;;1.98;0.80;;;21.20;49.10;;;;;;5039368;28;20037;-64
2023/03/30 06:32:17;;;;;;;2.05;1.00;;;21.20;49.10;;;;;;5042864;28;20481;-62
2023/03/30 06:34:43;;;;;;;1.60;0.85;;;21.20;49.20;;;;;;5041148;28;20017;-64
2023/03/30 06:37:09;;;;;;;1.75;1.00;;;21.20;49.10;;;;;;5041293;28;20466;-64
2023/03/30 06:39:36;;;;;;;1.42;0.90;;;21.20;49.10;;;;;;5043625;28;20025;-64
2023/03/30 06:42:04;;;;;;;2.30;1.00;;;21.20;49.20;;;;;;5037313;28;20059;-63
2023/03/30 06:44:30;;;;;;;1.60;0.82;;;21.20;49.10;;;;;;5040390;28;20040;-64
2023/03/30 06:46:56;;;;;;;1.50;0.80;;;21.20;49.10;;;;;;5040112;28;20401;-64
2023/03/30 06:49:21;;;;;;;1.95;1.00;;;21.20;49.10;;;;;;5040353;28;20040;-64
2023/03/30 06:51:47;;;;;;;2.33;0.82;;;21.20;49.10;;;;;;5039785;28;20021;-64
2023/03/30 06:54:13;;;;;;;1.65;1.00;;;21.20;49.10;;;;;;5041203;28;20051;-64
2023/03/30 06:56:39;;;;;;;1.35;0.82;;;21.20;49.20;;;;;;5042521;28;20119;-64
2023/03/30 06:59:04;;;;;;;2.70;1.10;;;21.20;49.10;;;;;;5042277;28;20013;-63
2023/03/30 07:01:30;;;;;;;2.28;1.10;;;21.20;49.20;;;;;;5042228;28;20025;-64
2023/03/30 07:03:56;;;;;;;1.35;0.75;;;21.20;49.20;;;;;;5042854;28;20040;-64
2023/03/30 07:06:21;;;;;;;1.40;0.95;;;21.20;49.20;;;;;;5040050;28;20029;-64
2023/03/30 07:08:47;;;;;;;1.60;0.90;;;21.20;49.20;;;;;;5041388;28;20946;-64
2023/03/30 07:11:13;;;;;;;1.98;0.90;;;21.20;49.20;;;;;;5038964;28;20450;-64
2023/03/30 07:13:39;;;;;;;1.05;0.70;;;21.20;49.20;;;;;;5040840;28;20034;-64
2023/03/30 07:16:05;;;;;;;2.15;1.00;;;21.20;49.10;;;;;;5043297;28;20025;-64
2023/03/30 07:18:31;;;;;;;1.42;0.90;;;21.20;49.10;;;;;;5040862;28;20521;-64
2023/03/30 07:21:00;;;;;;;1.58;0.88;;;21.20;49.20;;;;;;5042626;28;20104;-62
2023/03/30 07:23:26;;;;;;;1.95;0.90;;;21.20;49.20;;;;;;5037212;28;20022;-62
2023/03/30 07:25:51;;;;;;;1.60;0.90;;;21.20;49.20;;;;;;5041780;28;20046;-62
2023/03/30 07:28:17;;;;;;;2.70;0.90;;;21.20;49.20;;;;;;5038132;28;20045;-65
2023/03/30 07:30:43;;;;;;;2.13;0.95;;;21.20;49.20;;;;;;5040193;28;20028;-64
2023/03/30 07:33:09;;;;;;;1.83;0.90;;;21.20;49.20;;;;;;5041210;28;20025;-64
2023/03/30 07:35:35;;;;;;;2.13;1.08;;;21.20;49.20;;;;;;5037605;28;20428;-64
2023/03/30 07:38:01;;;;;;;1.90;1.05;;;21.20;49.20;;;;;;5038730;28;20025;-64
2023/03/30 07:40:27;;;;;;;2.25;0.90;;;21.20;49.20;;;;;;5038376;28;20033;-64
2023/03/30 07:42:52;;;;;;;1.90;1.00;;;21.20;49.20;;;;;;5040216;28;20485;-65
2023/03/30 07:45:18;;;;;;;1.80;0.95;;;21.20;49.20;;;;;;5040377;28;20378;-65
2023/03/30 07:47:43;;;;;;;1.85;1.00;;;21.20;49.20;;;;;;5039791;28;20083;-64
2023/03/30 07:50:09;;;;;;;1.65;0.93;;;21.20;49.20;;;;;;5040396;28;20079;-64
2023/03/30 07:52:35;;;;;;;2.55;1.10;;;21.20;49.20;;;;;;5040227;28;20502;-64
2023/03/30 07:55:01;;;;;;;2.88;1.00;;;21.20;49.30;;;;;;5038203;28;20022;-64
2023/03/30 07:57:27;;;;;;;1.58;0.98;;;21.20;49.30;;;;;;5041637;28;20036;-64
2023/03/30 07:59:52;;;;;;;2.03;0.90;;;21.20;49.30;;;;;;5040218;28;20100;-65
2023/03/30 08:02:18;;;;;;;1.67;0.90;;;21.20;49.30;;;;;;5039178;28;20505;-65
2023/03/30 08:04:44;;;;;;;2.53;1.02;;;21.20;49.30;;;;;;5072344;28;20108;-65
2023/03/30 08:07:10;;;;;;;1.60;0.85;;;21.20;49.30;;;;;;5038080;28;20037;-65
2023/03/30 08:09:36;;;;;;;1.92;0.90;;;21.20;49.30;;;;;;5040208;28;20025;-65
2023/03/30 08:12:02;;;;;;;2.10;1.10;;;21.20;49.30;;;;;;5039122;28;20134;-65
2023/03/30 08:14:28;;;;;;;1.85;0.93;;;21.20;49.30;;;;;;5045908;28;20370;-65
2023/03/30 08:16:54;;;;;;;1.63;0.82;;;21.20;49.30;;;;;;5035560;28;20036;-65
2023/03/30 08:19:22;;;;;;;1.75;0.90;;;21.20;49.30;;;;;;5040056;28;20503;-65
2023/03/30 08:21:48;;;;;;;1.45;0.80;;;21.20;49.30;;;;;;5039163;28;20036;-63
2023/03/30 08:24:13;;;;;;;2.38;1.10;;;21.20;49.30;;;;;;5038225;28;20029;-63
2023/03/30 08:26:39;;;;;;;1.52;0.90;;;21.20;49.30;;;;;;5040189;28;20033;-63
2023/03/30 08:29:05;;;;;;;1.67;1.00;;;21.20;49.30;;;;;;5041340;28;20044;-65
2023/03/30 08:31:31;;;;;;;1.83;0.95;;;21.20;49.30;;;;;;5037504;28;20428;-65
2023/03/30 08:34:02;;;;;;;1.77;1.00;;;21.20;49.30;;;;;;5035460;28;20029;-65
2023/03/30 08:36:27;;;;;;;1.92;0.93;;;21.20;49.30;;;;;;5039606;28;20121;-65
2023/03/30 08:38:53;;;;;;;1.88;1.10;;;21.20;49.30;;;;;;5038634;28;20496;-65
2023/03/30 08:41:28;;;;;;;2.50;1.02;;;21.20;49.30;;;;;;5040386;28;20136;-65
2023/03/30 08:44:01;;;;;;;1.95;0.90;;;21.20;49.30;;;;;;5040551;28;20399;-65
2023/03/30 08:46:29;;;;;;;1.27;0.80;;;21.20;49.30;;;;;;5036905;28;20029;-65
2023/03/30 08:48:59;;;;;;;1.83;1.00;;;21.20;49.30;;;;;;5034938;28;20051;-64
2023/03/30 08:51:34;;;;;;;1.63;0.90;;;21.20;49.30;;;;;;5039959;28;20041;-65
2023/03/30 08:54:06;;;;;;;1.70;0.98;;;21.20;49.30;;;;;;5038534;28;20442;-65
2023/03/30 08:56:38;;;;;;;1.92;1.02;;;21.20;49.30;;;;;;5041095;28;20091;-65
2023/03/30 08:59:41;;;;;;;2.30;1.10;;;21.20;49.30;;;;;;5037297;28;20029;-65
2023/03/30 09:02:27;;;;;;;1.55;0.90;;;21.20;49.30;;;;;;5037923;28;20029;-65
2023/03/30 09:05:02;;;;;;;2.30;1.02;;;21.20;49.30;;;;;;5037509;28;20175;-65
2023/03/30 09:07:49;;;;;;;2.38;1.02;;;21.20;49.30;;;;;;5039719;28;20033;-65
2023/03/30 09:10:15;;;;;;;2.47;1.00;;;21.20;49.30;;;;;;5035691;28;20025;-65
2023/03/30 09:12:57;;;;;;;2.22;1.20;;;21.20;49.30;;;;;;5039884;28;20036;-65
2023/03/30 09:15:42;;;;;;;2.90;1.20;;;21.20;49.30;;;;;;5040026;28;20436;-66
2023/03/30 09:18:10;;;;;;;1.90;1.10;;;21.20;49.30;;;;;;5036756;28;20067;-65
2023/03/30 09:20:39;;;;;;;1.48;1.00;;;21.20;49.30;;;;;;5041778;28;20044;-66
2023/03/30 09:23:10;;;;;;;1.98;1.00;;;21.10;49.20;;;;;;5038903;28;20075;-65
2023/03/30 09:25:57;;;;;;;2.47;1.10;;;21.20;49.30;;;;;;5036196;28;20116;-65
2023/03/30 09:28:30;;;;;;;2.00;1.00;;;21.20;49.30;;;;;;5036618;28;20470;-65
2023/03/30 09:31:00;;;;;;;2.20;1.00;;;21.20;49.30;;;;;;5040149;28;20033;-65
2023/03/30 09:33:29;;;;;;;1.98;1.20;;;21.20;49.30;;;;;;5039685;28;20018;-65
2023/03/30 09:36:09;;;;;;;2.10;0.93;;;21.20;49.30;;;;;;5039272;28;20018;-65
2023/03/30 09:38:36;;;;;;;;;;;21.20;49.30;;;;;;5035720;28;20052;-63
2023/03/30 09:41:16;;;;;;;2.53;1.45;;;21.20;49.30;;;;;;5037320;28;20280;-65
2023/03/30 09:43:44;;;;;;;;;;;21.20;49.30;;;;;;5038685;28;20033;-65
2023/03/30 09:46:11;;;;;;;2.40;1.20;;;21.20;49.30;;;;;;5039282;28;19905;-65
2023/03/30 09:48:42;;;;;;;1.40;0.90;;;21.10;49.20;;;;;;5036836;28;20359;-65
2023/03/30 09:51:26;;;;;;;1.90;1.13;;;21.20;49.30;;;;;;5037397;28;20480;-65
2023/03/30 09:54:02;;;;;;;2.85;1.20;;;21.10;49.20;;;;;;5042643;28;20366;-65
2023/03/30 09:56:34;;;;;;;1.45;1.13;;;21.20;49.30;;;;;;5039504;28;20116;-65
2023/03/30 09:59:32;;;;;;;2.38;1.20;;;21.20;49.30;;;;;;5039519;28;20021;-65
2023/03/30 10:02:20;;;;;;;1.90;1.10;;;21.20;49.30;;;;;;5041257;28;20456;-65
2023/03/30 10:04:51;;;;;;;1.63;0.90;;;21.10;49.30;;;;;;5038871;28;20449;-65
2023/03/30 10:07:51;;;;;;;2.28;1.00;;;21.10;49.30;;;;;;5044417;28;20061;-66
2023/03/30 10:10:20;;;;;;;2.33;1.13;;;21.10;49.80;;;;;;5032483;28;20044;-65
2023/03/30 10:12:48;;;;;;;2.10;1.10;;;21.10;49.20;;;;;;5041036;28;20036;-63
2023/03/30 10:15:20;;;;;;;1.80;1.02;;;21.10;49.20;;;;;;5039993;28;20036;-65
2023/03/30 10:17:47;;;;;;;2.15;1.27;;;21.20;49.30;;;;;;5044646;28;20416;-65
2023/03/30 10:20:28;;;;;;;1.63;0.98;;;21.10;49.20;;;;;;5048586;28;20483;-65
2023/03/30 10:22:55;;;;;;;1.85;1.13;;;21.10;49.30;;;;;;5042309;28;20041;-65
2023/03/30 10:25:26;;;;;;;1.60;1.15;;;21.10;49.20;;;;;;5040823;28;20528;-64
2023/03/30 10:27:55;;;;;;;1.63;1.00;;;21.10;49.20;;;;;;5041755;28;20078;-64
2023/03/30 10:30:24;;;;;;;1.38;1.00;;;21.20;49.30;;;;;;5043362;28;20024;-62
2023/03/30 10:32:52;;;;;;;2.40;1.27;;;21.20;49.80;;;;;;5041520;28;20111;-64
2023/03/30 10:35:24;;;;;;;2.20;1.30;;;21.10;49.20;;;;;;5039457;28;20029;-63
2023/03/30 10:37:53;;;;;;;1.75;1.00;;;21.10;49.30;;;;;;5040446;28;20076;-63
2023/03/30 10:41:01;;;;;;;1.70;1.10;;;21.10;49.30;;;;;;5040399;28;20029;-64
2023/03/30 10:43:30;;;;;;;1.52;1.02;;;21.10;49.20;;;;;;5002832;28;20410;-63
2023/03/30 10:45:57;;;;;;;;;;;21.20;49.30;;;;;;5038813;28;20473;-64
2023/03/30 10:48:56;;;;;;;1.60;1.08;;;21.20;49.30;;;;;;5041365;28;20399;-64
2023/03/30 10:51:45;;;;;;;2.05;1.20;;;21.10;49.20;;;;;;5040390;28;20065;-63
2023/03/30 10:54:17;;;;;;;2.10;1.13;;;21.10;49.20;;;;;;5044603;28;20077;-64
2023/03/30 10:56:48;;;;;;;2.05;1.10;;;21.10;49.20;;;;;;5041909;28;20029;-63
2023/03/30 10:59:38;;;;;;;1.73;1.10;;;21.10;49.20;;;;;;5041708;28;20445;-63
2023/03/30 11:02:24;;;;;;;1.60;1.10;;;21.10;49.20;;;;;;5044180;28;20033;-64
2023/03/30 11:05:11;;;;;;;2.65;1.00;;;21.10;49.20;;;;;;5040179;28;20025;-64
2023/03/30 11:08:12;;;;;;;2.05;1.05;;;21.10;49.20;;;;;;5043293;28;20037;-64
2023/03/30 11:10:46;;;;;;;2.42;0.93;;;21.10;49.20;;;;;;5036406;28;20044;-63
2023/03/30 11:13:19;;;;;;;2.28;0.95;;;21.10;49.20;;;;;;5039557;28;20028;-64
2023/03/30 11:15:53;;;;;;;2.28;1.27;;;21.20;49.30;;;;;;5043741;28;20524;-64
2023/03/30 11:18:41;;;;;;;1.98;1.10;;;21.10;49.20;;;;;;5039874;28;20033;-64
2023/03/30 11:21:25;;;;;;;1.93;1.10;;;21.10;49.20;;;;;;5054855;28;20044;-64
2023/03/30 11:23:58;;;;;;;2.05;1.05;;;21.10;49.20;;;;;;5038093;28;20496;-65
2023/03/30 11:27:12;;;;;;;2.15;1.13;;;21.10;49.20;;;;;;5040965;28;20090;-65
2023/03/30 11:29:55;;;;;;;2.15;1.20;;;21.10;49.30;;;;;;5039016;28;20106;-65
2023/03/30 11:32:45;;;;;;;2.40;1.10;;;21.10;49.20;;;;;;5040590;28;20033;-65
2023/03/30 11:35:41;;;;;;;1.92;1.10;;;21.10;49.30;;;;;;5041474;28;20473;-65
2023/03/30 11:38:28;;;;;;;1.98;1.00;;;21.10;49.30;;;;;;5037431;28;20036;-64
2023/03/30 11:41:05;;;;;;;2.10;1.10;;;21.10;49.30;;;;;;5038498;28;20367;-65
2023/03/30 11:43:31;;;;;;;2.20;1.08;;;21.10;49.20;;;;;;5039955;28;20044;-65
2023/03/30 11:46:08;;;;;;;2.90;1.30;;;21.20;49.30;;;;;;5040294;28;20377;-65
2023/03/30 11:48:55;;;;;;;1.88;1.10;;;21.10;49.30;;;;;;5040846;28;20083;-65
2023/03/30 11:51:53;;;;;;;2.70;1.40;;;21.10;49.30;;;;;;5037418;28;20083;-65
2023/03/30 11:54:30;;;;;;;2.80;1.50;;;21.10;49.30;;;;;;5037535;28;20033;-65
2023/03/30 11:57:22;;;;;;;2.40;1.20;;;21.10;49.30;;;;;;5035925;28;20496;-65
2023/03/30 12:00:08;;;;;;;2.63;1.40;;;21.10;49.30;;;;;;5038824;28;20061;-65
2023/03/30 12:02:49;;;;;;;2.10;1.40;;;21.10;49.30;;;;;;5041727;28;20046;-65
2023/03/30 12:05:27;;;;;;;2.92;1.40;;;21.10;49.30;;;;;;5039566;28;20031;-65
2023/03/30 12:08:15;;;;;;;2.92;1.40;;;21.10;49.30;;;;;;5042479;28;20481;-64
2023/03/30 12:10:43;;;;;;;3.00;1.77;;;21.10;49.30;;;;;;5040054;28;20053;-65
2023/03/30 12:13:14;;;;;;;2.13;1.40;;;21.10;49.20;;;;;;5040237;28;20083;-65
2023/03/30 12:15:48;;;;;;;2.20;1.42;;;21.10;49.30;;;;;;5039005;28;20029;-65
2023/03/30 12:18:44;;;;;;;2.17;1.35;;;21.10;49.80;;;;;;5037524;28;20735;-65
2023/03/30 12:21:15;;;;;;;2.75;1.40;;;21.10;49.30;;;;;;5038497;28;20025;-65
2023/03/30 12:23:49;;;;;;;4.53;1.70;;;21.10;49.30;;;;;;5038626;28;20430;-65
2023/03/30 12:26:29;;;;;;;2.97;1.60;;;21.10;49.30;;;;;;5042751;28;20034;-66
2023/03/30 12:29:03;;;;;;;2.30;1.38;;;21.10;49.30;;;;;;5040305;28;20342;-65
2023/03/30 12:32:01;;;;;;;4.10;1.80;;;21.10;49.30;;;;;;5037158;28;20025;-65
2023/03/30 12:34:31;;;;;;;3.00;1.80;;;21.10;49.40;;;;;;5043939;28;20087;-64
2023/03/30 12:37:17;;;;;;;3.15;1.73;;;21.10;49.40;;;;;;5037968;28;20042;-65
2023/03/30 12:39:52;;;;;;;3.67;2.03;;;21.10;49.40;;;;;;5039796;28;20029;-65
2023/03/30 12:42:38;;;;;;;3.22;1.90;;;21.10;49.40;;;;;;5036451;28;20079;-65
2023/03/30 12:45:27;;;;;;;2.85;1.83;;;21.10;49.50;;;;;;5046990;28;20037;-65
2023/03/30 12:48:25;;;;;;;3.35;2.00;;;21.10;50.10;;;;;;5036243;28;20047;-64
2023/03/30 12:51:02;;;;;;;3.50;2.03;;;21.10;49.60;;;;;;5036516;28;20049;-65
2023/03/30 12:54:13;;;;;;;3.30;2.08;;;21.10;49.50;;;;;;5039329;28;20393;-65
2023/03/30 12:56:54;;;;;;;4.13;1.90;;;21.10;49.60;;;;;;5037902;28;20061;-65
2023/03/30 12:59:30;;;;;;;3.85;2.00;;;21.10;50.10;;;;;;5039815;28;20060;-64
2023/03/30 13:02:06;;;;;;;3.20;1.85;;;21.10;49.60;;;;;;5041049;28;20470;-65
2023/03/30 13:04:37;;;;;;;2.72;1.70;;;21.10;49.60;;;;;;5039793;28;20095;-65
2023/03/30 13:07:12;;;;;;;3.08;2.05;;;21.10;49.60;;;;;;5040279;28;20534;-65
2023/03/30 13:09:55;;;;;;;3.92;1.90;;;21.10;49.70;;;;;;5037990;28;20029;-65
2023/03/30 13:12:28;;;;;;;2.80;1.90;;;21.10;49.70;;;;;;5035056;28;20041;-65
2023/03/30 13:15:15;;;;;;;3.85;2.00;;;21.10;49.70;;;;;;5055159;28;20034;-65